Hewlett Bay, New York
Current Conditions -  °F | °C
As of 10:51 AM on Friday 21 Nov 2014 (Local Time) from KJFK Reporting Station
Few Clouds Few Clouds  
Wind Chill: 24°   Ceiling: Unl
Heat Index: 35°   Visibility: 10mi
Dew Point:   Wind: 21mph
Humidity: 33%   Direction: 300°WNW
Pressure: 30.3"   Gusts: 28mph
Location:  40.637°N, 73.6912°W
Report Text: KJFK 211551Z 30018G24KT 10SM FEW060 02/M13 A3030 RMK AO2 PK WND 31026/1456 SLP259 T00171133
Loading
Personal Weather Stations






























Interactive Weather Map New forecast layout! Learn more

10-Day Weather Forecast

Advertisements
Track Severe Weather on mobile